createdAt,value
2017-03-26T00:00:19.789Z,13.20
2017-03-26T00:01:19.417Z,11.70
2017-03-26T00:02:18.626Z,11.92
2017-03-26T00:03:17.810Z,16.25
2017-03-26T00:04:17.007Z,14.15
2017-03-26T00:05:16.155Z,15.65
2017-03-26T00:06:16.084Z,11.02
2017-03-26T00:07:15.591Z,10.17
2017-03-26T00:08:14.732Z,13.05
2017-03-26T00:09:13.971Z,15.92
2017-03-26T00:10:13.130Z,17.40
2017-03-26T00:11:12.330Z,13.05
2017-03-26T00:12:11.747Z,14.78
2017-03-26T00:13:11.302Z,17.55
2017-03-26T00:14:10.714Z,11.30
2017-03-26T00:15:09.906Z,12.77
2017-03-26T00:16:09.053Z,18.47
2017-03-26T00:17:08.210Z,24.88
2017-03-26T00:18:07.351Z,15.22
2017-03-26T00:19:06.919Z,11.62
2017-03-26T00:20:06.156Z,24.83
2017-03-26T00:21:05.356Z,12.22
2017-03-26T00:22:04.518Z,11.23
2017-03-26T00:23:03.670Z,11.78
2017-03-26T00:24:02.938Z,14.10
2017-03-26T00:25:02.525Z,18.63
2017-03-26T00:26:01.682Z,16.63
2017-03-26T00:27:00.815Z,12.80
2017-03-26T00:28:00.054Z,16.72
2017-03-26T00:28:59.200Z,13.88
2017-03-26T00:29:58.357Z,16.07
2017-03-26T00:30:57.822Z,17.22
2017-03-26T00:31:57.038Z,17.95
2017-03-26T00:32:56.170Z,13.67
2017-03-26T00:33:56.189Z,14.00
2017-03-26T00:34:55.349Z,15.00
2017-03-26T00:35:54.474Z,16.13
2017-03-26T00:36:54.046Z,16.75
2017-03-26T00:37:53.186Z,16.07
2017-03-26T00:38:52.319Z,18.23
2017-03-26T00:39:51.534Z,16.45
2017-03-26T00:40:50.685Z,14.97
2017-03-26T00:41:49.877Z,12.68
2017-03-26T00:42:49.478Z,12.40
2017-03-26T00:43:49.443Z,16.05
2017-03-26T00:44:48.681Z,14.65
2017-03-26T00:45:47.826Z,14.95
2017-03-26T00:46:46.992Z,11.82
2017-03-26T00:47:46.148Z,15.15
2017-03-26T00:48:45.692Z,13.43
2017-03-26T00:49:44.874Z,13.40
2017-03-26T00:50:44.054Z,16.30
2017-03-26T00:51:44.116Z,14.70
2017-03-26T00:52:43.284Z,14.35
2017-03-26T00:53:42.419Z,16.53
2017-03-26T00:54:41.935Z,15.13
2017-03-26T00:55:41.079Z,17.30
2017-03-26T00:56:40.274Z,16.17
2017-03-26T00:57:39.398Z,19.05
2017-03-26T00:58:38.539Z,15.37
2017-03-26T00:59:37.932Z,17.52
2017-03-26T01:00:37.436Z,16.87
2017-03-26T01:01:36.603Z,15.97
2017-03-26T01:02:36.569Z,17.63
2017-03-26T01:03:35.697Z,16.43
2017-03-26T01:04:34.856Z,22.65
2017-03-26T01:05:34.036Z,14.25
2017-03-26T01:06:33.559Z,14.68
2017-03-26T01:07:32.727Z,14.12
2017-03-26T01:08:31.955Z,17.75
2017-03-26T01:09:31.841Z,14.70
2017-03-26T01:10:31.004Z,17.82
2017-03-26T01:11:30.236Z,22.07
2017-03-26T01:12:29.697Z,21.53
2017-03-26T01:13:29.882Z,19.75
2017-03-26T01:14:29.042Z,14.68
2017-03-26T01:15:28.201Z,14.47
2017-03-26T01:16:27.339Z,15.70
2017-03-26T01:17:27.303Z,17.75
2017-03-26T01:18:26.946Z,13.00
2017-03-26T01:19:26.113Z,14.47
2017-03-26T01:20:25.246Z,14.47
2017-03-26T01:21:24.342Z,12.80
2017-03-26T01:22:23.430Z,15.90
2017-03-26T01:23:22.547Z,15.97
2017-03-26T01:24:22.092Z,14.20
2017-03-26T01:25:21.270Z,12.70
2017-03-26T01:26:20.514Z,16.35
2017-03-26T01:27:19.729Z,11.78
2017-03-26T01:28:19.428Z,12.43
2017-03-26T01:29:18.581Z,13.57
2017-03-26T01:30:18.183Z,15.12
2017-03-26T01:31:17.408Z,11.68
2017-03-26T01:32:16.629Z,15.03
2017-03-26T01:33:16.516Z,11.88
2017-03-26T01:34:15.720Z,10.47
2017-03-26T01:35:14.867Z,16.10
2017-03-26T01:36:14.400Z,12.62
2017-03-26T01:37:13.555Z,18.97
2017-03-26T01:38:12.749Z,10.02
2017-03-26T01:39:12.459Z,16.52
2017-03-26T01:40:11.646Z,14.32
2017-03-26T01:41:10.789Z,15.75
2017-03-26T01:42:10.263Z,15.02
2017-03-26T01:43:10.132Z,16.23
2017-03-26T01:44:09.279Z,18.52
2017-03-26T01:45:08.422Z,16.60
2017-03-26T01:46:07.552Z,13.72
2017-03-26T01:47:06.750Z,13.58
2017-03-26T01:48:06.369Z,13.63
2017-03-26T01:49:05.503Z,15.50
2017-03-26T01:50:04.625Z,13.53
2017-03-26T01:51:03.761Z,16.43
2017-03-26T01:52:02.916Z,14.77
2017-03-26T01:53:02.049Z,18.42
2017-03-26T01:54:01.501Z,13.52
2017-03-26T01:55:00.645Z,15.88
2017-03-26T01:55:59.807Z,15.27
2017-03-26T01:56:58.902Z,16.07
2017-03-26T01:57:58.046Z,15.90
2017-03-26T01:58:57.163Z,18.47
2017-03-26T01:59:56.648Z,11.85
2017-03-26T02:00:55.795Z,11.50
2017-03-26T02:01:54.951Z,15.32
2017-03-26T02:02:54.015Z,14.87
2017-03-26T02:03:53.170Z,15.53
2017-03-26T02:04:52.380Z,17.68
2017-03-26T02:05:51.779Z,13.17
2017-03-26T02:06:50.907Z,16.78
2017-03-26T02:07:50.027Z,15.75
2017-03-26T02:08:49.181Z,13.65
2017-03-26T02:09:48.342Z,11.93
2017-03-26T02:10:47.478Z,14.30
2017-03-26T02:11:47.639Z,19.33
2017-03-26T02:12:46.774Z,12.12
2017-03-26T02:13:46.661Z,15.37
2017-03-26T02:14:45.770Z,15.22
2017-03-26T02:15:45.616Z,12.82
2017-03-26T02:16:44.742Z,18.98
2017-03-26T02:17:44.208Z,14.17
2017-03-26T02:18:43.331Z,13.10
2017-03-26T02:19:42.463Z,13.60
2017-03-26T02:20:41.620Z,13.98
2017-03-26T02:21:40.918Z,17.05
2017-03-26T02:22:40.019Z,20.83
2017-03-26T02:23:39.468Z,20.58
2017-03-26T02:24:39.414Z,19.28
2017-03-26T02:25:38.538Z,16.20
2017-03-26T02:26:37.683Z,14.30
2017-03-26T02:27:36.805Z,22.10
2017-03-26T02:28:35.954Z,16.97
2017-03-26T02:29:35.626Z,16.20
2017-03-26T02:30:35.523Z,14.43
2017-03-26T02:31:35.465Z,16.15
2017-03-26T02:32:34.628Z,11.70
2017-03-26T02:33:33.764Z,10.92
2017-03-26T02:34:32.947Z,16.13
2017-03-26T02:35:32.478Z,15.43
2017-03-26T02:36:31.611Z,12.77
2017-03-26T02:37:30.760Z,15.65
2017-03-26T02:38:29.889Z,10.45
2017-03-26T02:39:29.063Z,13.28
2017-03-26T02:40:28.196Z,12.13
2017-03-26T02:41:27.604Z,11.35
2017-03-26T02:42:26.807Z,13.95
2017-03-26T02:43:25.891Z,12.65
2017-03-26T02:44:25.097Z,17.60
2017-03-26T02:45:24.390Z,16.25
2017-03-26T02:46:23.658Z,17.60
2017-03-26T02:47:23.262Z,16.68
2017-03-26T02:48:22.385Z,16.02
2017-03-26T02:49:22.352Z,17.02
2017-03-26T02:50:21.662Z,14.42
2017-03-26T02:51:20.763Z,15.10
2017-03-26T02:52:19.903Z,15.20
2017-03-26T02:53:19.391Z,13.80
2017-03-26T02:54:18.559Z,13.80
2017-03-26T02:55:17.758Z,12.53
2017-03-26T02:56:17.640Z,16.87
2017-03-26T02:57:16.777Z,15.72
2017-03-26T02:58:16.010Z,17.55
2017-03-26T02:59:15.618Z,18.62
2017-03-26T03:00:14.805Z,13.87
2017-03-26T03:01:14.211Z,19.17
2017-03-26T03:02:13.342Z,18.28
2017-03-26T03:03:12.487Z,17.20
2017-03-26T03:04:11.683Z,13.90
2017-03-26T03:05:11.139Z,13.10
2017-03-26T03:06:10.295Z,14.23
2017-03-26T03:07:09.426Z,14.02
2017-03-26T03:08:08.572Z,18.93
2017-03-26T03:09:07.721Z,16.62
2017-03-26T03:10:06.920Z,15.90
2017-03-26T03:11:06.379Z,18.25
2017-03-26T03:12:05.542Z,14.23
2017-03-26T03:13:05.409Z,15.88
2017-03-26T03:14:04.761Z,14.68
2017-03-26T03:15:03.840Z,17.20
2017-03-26T03:16:02.960Z,16.53
2017-03-26T03:17:02.374Z,17.03
2017-03-26T03:18:01.571Z,14.45
2017-03-26T03:19:00.711Z,15.58
2017-03-26T03:19:59.881Z,14.70
2017-03-26T03:20:59.147Z,15.87
2017-03-26T03:21:59.021Z,15.10
2017-03-26T03:22:58.581Z,16.92
2017-03-26T03:23:57.712Z,17.18
2017-03-26T03:24:56.884Z,18.50
2017-03-26T03:25:56.165Z,15.85
2017-03-26T03:26:55.291Z,15.45
2017-03-26T03:27:55.163Z,15.23
2017-03-26T03:28:54.646Z,12.17
2017-03-26T03:29:53.819Z,21.67
2017-03-26T03:30:53.661Z,21.52
2017-03-26T03:31:52.844Z,18.38
2017-03-26T03:32:51.967Z,14.08
2017-03-26T03:33:51.095Z,13.83
2017-03-26T03:34:50.664Z,18.00
2017-03-26T03:35:49.772Z,18.70
2017-03-26T03:36:49.786Z,14.97
2017-03-26T03:37:48.935Z,16.45
2017-03-26T03:38:48.086Z,18.13
2017-03-26T03:39:47.228Z,18.77
2017-03-26T03:40:49.645Z,13.95
2017-03-26T03:41:49.546Z,15.35
2017-03-26T03:42:48.720Z,18.43
2017-03-26T03:43:47.867Z,22.62
2017-03-26T03:44:46.985Z,18.23
2017-03-26T03:45:46.121Z,17.73
2017-03-26T03:46:45.738Z,21.78
2017-03-26T03:47:44.863Z,13.42
2017-03-26T03:48:44.010Z,20.98
2017-03-26T03:49:43.158Z,15.37
2017-03-26T03:50:42.292Z,15.70
2017-03-26T03:51:41.417Z,17.23
2017-03-26T03:52:40.817Z,20.07
2017-03-26T03:53:40.039Z,14.48
2017-03-26T03:54:40.030Z,17.37
2017-03-26T03:55:39.164Z,15.23
2017-03-26T03:56:38.320Z,24.55
2017-03-26T03:57:37.475Z,15.62
2017-03-26T03:58:37.006Z,17.58
2017-03-26T03:59:36.123Z,18.75
2017-03-26T04:00:35.262Z,19.28
2017-03-26T04:01:34.426Z,17.97
2017-03-26T04:02:33.590Z,16.90
2017-03-26T04:03:32.736Z,17.83
2017-03-26T04:04:33.065Z,15.18
2017-03-26T04:05:32.238Z,19.33
2017-03-26T04:06:32.150Z,12.77
2017-03-26T04:07:31.408Z,14.75
2017-03-26T04:08:30.508Z,13.38
2017-03-26T04:09:29.689Z,16.42
2017-03-26T04:10:29.197Z,17.42
2017-03-26T04:11:28.359Z,16.93
2017-03-26T04:12:27.621Z,19.32
2017-03-26T04:13:26.773Z,12.98
2017-03-26T04:14:26.042Z,15.45
2017-03-26T04:15:25.151Z,17.45
2017-03-26T04:16:24.768Z,18.73
2017-03-26T04:17:24.091Z,21.30
2017-03-26T04:18:23.240Z,15.43
2017-03-26T04:19:22.476Z,18.20
2017-03-26T04:20:21.607Z,16.05
2017-03-26T04:21:20.737Z,18.57
2017-03-26T04:22:20.259Z,15.60
2017-03-26T04:23:19.396Z,12.62
2017-03-26T04:24:18.535Z,16.38
2017-03-26T04:25:17.696Z,14.75
2017-03-26T04:26:16.851Z,16.70
2017-03-26T04:27:15.986Z,22.10
2017-03-26T04:28:15.481Z,16.55
2017-03-26T04:29:15.405Z,22.28
2017-03-26T04:30:14.557Z,18.85
2017-03-26T04:31:13.721Z,17.57
2017-03-26T04:32:12.889Z,15.65
2017-03-26T04:33:12.003Z,15.58
2017-03-26T04:34:11.527Z,18.15
2017-03-26T04:35:10.651Z,17.38
2017-03-26T04:36:09.774Z,17.93
2017-03-26T04:37:08.882Z,20.12
2017-03-26T04:38:08.015Z,13.83
2017-03-26T04:39:07.157Z,22.32
2017-03-26T04:40:06.654Z,15.60
2017-03-26T04:41:05.783Z,18.67
2017-03-26T04:42:05.000Z,14.95
2017-03-26T04:43:04.133Z,16.62
2017-03-26T04:44:03.271Z,16.47
2017-03-26T04:45:02.480Z,17.70
2017-03-26T04:46:01.971Z,18.15
2017-03-26T04:47:01.112Z,18.58
2017-03-26T04:48:00.221Z,17.82
2017-03-26T04:48:59.429Z,14.37
2017-03-26T04:49:58.542Z,14.75
2017-03-26T04:50:57.662Z,22.53
2017-03-26T04:51:57.283Z,21.95
2017-03-26T04:52:56.455Z,19.45
2017-03-26T04:53:55.613Z,19.43
2017-03-26T04:54:54.730Z,14.05
2017-03-26T04:55:53.870Z,17.82
2017-03-26T04:56:53.010Z,20.95
2017-03-26T04:57:52.508Z,19.10
2017-03-26T04:58:51.667Z,19.12
2017-03-26T04:59:50.875Z,16.48
2017-03-26T05:00:50.039Z,15.65
2017-03-26T05:01:49.203Z,14.63
2017-03-26T05:02:48.340Z,18.17
2017-03-26T05:03:47.872Z,16.15
2017-03-26T05:04:47.037Z,17.30
2017-03-26T05:05:46.178Z,19.42
2017-03-26T05:06:45.371Z,16.58
2017-03-26T05:07:44.551Z,15.33
2017-03-26T05:08:43.695Z,16.18
2017-03-26T05:09:43.307Z,24.72
2017-03-26T05:10:42.450Z,15.48
2017-03-26T05:11:41.842Z,20.85
2017-03-26T05:12:40.982Z,17.00
2017-03-26T05:13:40.235Z,18.52
2017-03-26T05:14:39.408Z,17.72
2017-03-26T05:15:38.938Z,20.00
2017-03-26T05:16:38.078Z,23.97
2017-03-26T05:17:37.218Z,18.63
2017-03-26T05:18:36.452Z,16.10
2017-03-26T05:19:35.601Z,21.63
2017-03-26T05:20:34.734Z,16.30
2017-03-26T05:21:34.263Z,24.95
2017-03-26T05:22:33.406Z,18.82
2017-03-26T05:23:32.546Z,13.78
2017-03-26T05:24:31.678Z,21.17
2017-03-26T05:25:30.891Z,20.98
2017-03-26T05:26:30.037Z,18.05
2017-03-26T05:27:29.507Z,23.00
2017-03-26T05:28:29.210Z,18.57
2017-03-26T05:29:28.374Z,16.80
2017-03-26T05:30:28.375Z,20.98
2017-03-26T05:31:27.542Z,24.25
2017-03-26T05:32:26.679Z,24.98
2017-03-26T05:33:26.138Z,24.73
2017-03-26T05:34:25.282Z,17.38
2017-03-26T05:35:24.418Z,18.47
2017-03-26T05:36:23.511Z,20.32
2017-03-26T05:37:22.604Z,23.43
2017-03-26T05:38:21.757Z,25.92
2017-03-26T05:39:21.245Z,19.40
2017-03-26T05:40:20.482Z,19.75
2017-03-26T05:41:19.606Z,19.95
2017-03-26T05:42:18.757Z,23.08
2017-03-26T05:43:17.978Z,24.52
2017-03-26T05:44:17.125Z,18.57
2017-03-26T05:45:16.694Z,16.55
2017-03-26T05:46:16.671Z,16.42
2017-03-26T05:47:15.793Z,17.82
2017-03-26T05:48:15.669Z,19.38
2017-03-26T05:49:14.834Z,19.82
2017-03-26T05:50:13.993Z,21.65
2017-03-26T05:51:13.458Z,24.58
2017-03-26T05:52:12.591Z,21.62
2017-03-26T05:53:11.696Z,21.52
2017-03-26T05:54:10.848Z,21.45
2017-03-26T05:55:09.995Z,22.88
2017-03-26T05:56:09.105Z,20.02
2017-03-26T05:57:08.577Z,27.07
2017-03-26T05:58:08.528Z,32.02
2017-03-26T05:59:07.617Z,19.65
2017-03-26T06:00:06.723Z,34.75
2017-03-26T06:01:05.905Z,27.30
2017-03-26T06:02:05.060Z,23.35
2017-03-26T06:03:04.614Z,21.70
2017-03-26T06:04:03.784Z,29.10
2017-03-26T06:05:02.942Z,21.93
2017-03-26T06:06:02.092Z,26.20
2017-03-26T06:07:01.230Z,18.47
2017-03-26T06:08:00.393Z,23.38
2017-03-26T06:08:59.874Z,25.08
2017-03-26T06:09:58.984Z,26.57
2017-03-26T06:10:58.131Z,27.17
2017-03-26T06:11:57.388Z,25.23
2017-03-26T06:12:56.568Z,19.78
2017-03-26T06:13:55.739Z,24.53
2017-03-26T06:14:55.275Z,24.93
2017-03-26T06:15:54.554Z,19.70
2017-03-26T06:16:53.665Z,20.02
2017-03-26T06:17:52.793Z,16.77
2017-03-26T06:18:52.000Z,17.23
2017-03-26T06:19:51.137Z,16.45
2017-03-26T06:20:50.619Z,18.27
2017-03-26T06:21:49.761Z,20.58
2017-03-26T06:22:48.894Z,16.52
2017-03-26T06:23:48.036Z,26.37
2017-03-26T06:24:47.178Z,24.80
2017-03-26T06:25:46.400Z,18.25
2017-03-26T06:26:46.010Z,23.38
2017-03-26T06:27:45.164Z,26.25
2017-03-26T06:28:44.333Z,23.07
2017-03-26T06:29:43.467Z,20.75
2017-03-26T06:30:43.391Z,24.55
2017-03-26T06:31:42.797Z,22.80
2017-03-26T06:32:42.398Z,17.02
2017-03-26T06:33:41.507Z,17.20
2017-03-26T06:34:40.815Z,16.93
2017-03-26T06:35:39.957Z,19.60
2017-03-26T06:36:39.103Z,16.77
2017-03-26T06:37:38.247Z,17.92
2017-03-26T06:38:37.925Z,20.10
2017-03-26T06:39:37.058Z,21.22
2017-03-26T06:40:36.179Z,18.85
2017-03-26T06:41:35.330Z,18.85
2017-03-26T06:42:34.457Z,18.32
2017-03-26T06:43:33.583Z,19.02
2017-03-26T06:44:33.073Z,18.02
2017-03-26T06:45:32.221Z,16.65
2017-03-26T06:46:31.318Z,19.52
2017-03-26T06:47:30.469Z,19.40
2017-03-26T06:48:29.626Z,15.13
2017-03-26T06:49:28.756Z,18.98
2017-03-26T06:50:28.344Z,20.02
2017-03-26T06:51:27.510Z,18.43
2017-03-26T06:52:27.182Z,18.92
2017-03-26T06:53:26.398Z,14.27
2017-03-26T06:54:25.603Z,16.03
2017-03-26T06:55:24.729Z,18.03
2017-03-26T06:56:24.261Z,19.17
2017-03-26T06:57:23.424Z,14.17
2017-03-26T06:58:22.561Z,17.03
2017-03-26T06:59:21.693Z,16.97
2017-03-26T07:00:21.144Z,17.08
2017-03-26T07:01:20.460Z,17.30
2017-03-26T07:02:19.970Z,14.85
2017-03-26T07:03:19.081Z,14.32
2017-03-26T07:04:18.221Z,15.93
2017-03-26T07:05:17.403Z,16.93
2017-03-26T07:06:16.533Z,16.27
2017-03-26T07:07:15.663Z,16.47
2017-03-26T07:08:15.179Z,14.80
2017-03-26T07:09:14.976Z,16.38
2017-03-26T07:10:14.858Z,18.27
2017-03-26T07:11:14.020Z,17.52
2017-03-26T07:12:13.248Z,14.10
2017-03-26T07:13:12.421Z,16.20
2017-03-26T07:14:12.027Z,17.25
2017-03-26T07:15:11.185Z,17.28
2017-03-26T07:16:10.342Z,15.68
2017-03-26T07:17:09.514Z,18.22
2017-03-26T07:18:08.657Z,18.03
2017-03-26T07:19:07.905Z,14.17
2017-03-26T07:20:07.325Z,18.50
2017-03-26T07:21:06.515Z,17.68
2017-03-26T07:22:05.678Z,18.30
2017-03-26T07:23:04.807Z,16.12
2017-03-26T07:24:04.039Z,15.65
2017-03-26T07:25:03.300Z,16.57
2017-03-26T07:26:03.734Z,23.63
2017-03-26T07:27:02.841Z,14.45
2017-03-26T07:28:02.001Z,26.43
2017-03-26T07:29:01.219Z,16.88
2017-03-26T07:30:00.367Z,16.67
2017-03-26T07:31:00.296Z,18.70
2017-03-26T07:31:59.869Z,16.63
2017-03-26T07:32:59.046Z,15.48
2017-03-26T07:33:58.134Z,16.98
2017-03-26T07:34:57.324Z,14.73
2017-03-26T07:35:57.280Z,13.52
2017-03-26T07:36:56.481Z,15.52
2017-03-26T07:37:56.120Z,16.38
2017-03-26T07:39:01.954Z,16.48
2017-03-26T07:40:01.095Z,20.40
2017-03-26T07:41:00.814Z,10.32
2017-03-26T07:41:59.950Z,10.82
2017-03-26T07:42:59.540Z,12.87
2017-03-26T07:43:58.699Z,14.35
2017-03-26T07:44:57.815Z,11.60
2017-03-26T07:45:56.974Z,16.97
2017-03-26T07:46:56.297Z,11.85
2017-03-26T07:47:55.550Z,11.58
2017-03-26T07:48:55.030Z,13.87
2017-03-26T07:49:54.191Z,13.60
2017-03-26T07:50:53.361Z,16.62
2017-03-26T07:51:52.522Z,17.00
2017-03-26T07:52:51.701Z,16.00
2017-03-26T07:53:50.899Z,11.47
2017-03-26T07:54:50.541Z,12.83
2017-03-26T07:55:50.469Z,15.62
2017-03-26T07:56:49.613Z,13.90
2017-03-26T07:57:48.802Z,13.00
2017-03-26T07:58:47.952Z,18.47
2017-03-26T07:59:47.921Z,14.50
2017-03-26T08:00:47.391Z,10.57
2017-03-26T08:01:46.587Z,13.48
2017-03-26T08:02:45.738Z,13.63
2017-03-26T08:03:44.902Z,14.77
2017-03-26T08:04:44.181Z,13.28
2017-03-26T08:05:43.463Z,13.40
2017-03-26T08:06:42.882Z,12.25
2017-03-26T08:07:42.074Z,12.02
2017-03-26T08:08:42.095Z,11.45
2017-03-26T08:09:41.242Z,11.45
2017-03-26T08:10:40.386Z,11.23
2017-03-26T08:11:39.524Z,17.62
2017-03-26T08:12:40.566Z,14.53
2017-03-26T08:13:40.494Z,14.30
2017-03-26T08:14:39.651Z,20.03
2017-03-26T08:15:38.804Z,11.42
2017-03-26T08:16:37.930Z,15.42
2017-03-26T08:17:37.073Z,12.07
2017-03-26T08:18:36.536Z,13.30
2017-03-26T08:19:35.756Z,15.28
2017-03-26T08:20:34.931Z,14.22
2017-03-26T08:21:34.102Z,19.58
2017-03-26T08:22:33.286Z,14.97
2017-03-26T08:23:32.550Z,13.87
2017-03-26T08:24:32.148Z,14.18
2017-03-26T08:25:31.433Z,15.92
2017-03-26T08:26:31.513Z,19.08
2017-03-26T08:27:30.694Z,12.85
2017-03-26T08:28:29.874Z,13.27
2017-03-26T08:29:29.022Z,15.70
2017-03-26T08:30:28.692Z,13.57
2017-03-26T08:31:27.818Z,15.18
2017-03-26T08:32:26.976Z,13.07
2017-03-26T08:33:27.059Z,15.32
2017-03-26T08:34:26.202Z,11.30
2017-03-26T08:35:25.409Z,15.67
2017-03-26T08:36:24.989Z,13.48
2017-03-26T08:37:24.166Z,13.23
2017-03-26T08:38:23.315Z,13.05
2017-03-26T08:39:23.471Z,15.32
2017-03-26T08:40:22.719Z,18.80
2017-03-26T08:41:21.962Z,14.58
2017-03-26T08:42:21.527Z,14.52
2017-03-26T08:43:20.682Z,18.12
2017-03-26T08:44:19.880Z,18.02
2017-03-26T08:45:19.776Z,15.43
2017-03-26T08:46:19.050Z,16.87
2017-03-26T08:47:18.179Z,12.40
2017-03-26T08:48:17.774Z,10.80
2017-03-26T08:49:16.946Z,13.80
2017-03-26T08:50:16.174Z,16.62
2017-03-26T08:51:15.347Z,10.55
2017-03-26T08:52:14.489Z,17.03
2017-03-26T08:53:13.645Z,19.70
2017-03-26T08:54:13.198Z,13.82
2017-03-26T08:55:13.286Z,19.45
2017-03-26T08:56:12.540Z,14.42
2017-03-26T08:57:11.754Z,13.17
2017-03-26T08:58:11.335Z,11.62
2017-03-26T08:59:10.511Z,12.13
2017-03-26T09:00:10.051Z,8.88
2017-03-26T09:01:09.274Z,12.18
2017-03-26T09:02:08.428Z,10.75
2017-03-26T09:03:07.613Z,12.00
2017-03-26T09:04:07.552Z,13.25
2017-03-26T09:05:06.739Z,12.25
2017-03-26T09:06:06.222Z,11.37
2017-03-26T09:07:05.423Z,10.53
2017-03-26T09:08:04.593Z,11.78
2017-03-26T09:09:03.795Z,13.22
2017-03-26T09:10:03.215Z,14.10
2017-03-26T09:11:02.378Z,13.55
2017-03-26T09:12:02.082Z,11.65
2017-03-26T09:13:01.256Z,12.32
2017-03-26T09:14:00.498Z,13.85
2017-03-26T09:14:59.693Z,11.18
2017-03-26T09:15:58.919Z,12.45
2017-03-26T09:16:58.089Z,12.60
2017-03-26T09:17:57.723Z,10.85
2017-03-26T09:18:56.875Z,13.17
2017-03-26T09:19:56.754Z,9.62
2017-03-26T09:20:55.940Z,13.30
2017-03-26T09:21:55.100Z,10.52
2017-03-26T09:22:54.404Z,13.23
2017-03-26T09:23:54.044Z,11.17
2017-03-26T09:24:53.253Z,13.65
2017-03-26T09:25:52.430Z,14.48
2017-03-26T09:26:51.634Z,13.20
2017-03-26T09:27:50.774Z,10.70
2017-03-26T09:28:50.089Z,10.43
2017-03-26T09:29:49.713Z,10.42
2017-03-26T09:30:48.939Z,9.08
2017-03-26T09:31:48.162Z,10.37
2017-03-26T09:32:47.621Z,11.55
2017-03-26T09:33:46.865Z,11.53
2017-03-26T09:34:46.264Z,12.68
2017-03-26T09:35:45.826Z,11.47
2017-03-26T09:36:44.995Z,10.88
2017-03-26T09:37:44.272Z,12.22
2017-03-26T09:38:43.461Z,11.48
2017-03-26T09:39:42.815Z,13.75
2017-03-26T09:40:41.941Z,13.05
2017-03-26T09:41:42.409Z,10.17
2017-03-26T09:42:41.711Z,12.23
2017-03-26T09:43:40.917Z,9.13
2017-03-26T09:44:40.595Z,11.12
2017-03-26T09:45:39.741Z,10.45
2017-03-26T09:46:38.917Z,10.30
2017-03-26T09:47:38.323Z,11.92
2017-03-26T09:48:37.498Z,10.32
2017-03-26T09:49:37.488Z,9.18
2017-03-26T09:50:36.639Z,10.17
2017-03-26T09:51:35.833Z,17.45
2017-03-26T09:52:35.327Z,12.30
2017-03-26T09:53:34.524Z,12.95
2017-03-26T09:54:34.331Z,10.55
2017-03-26T09:55:33.550Z,10.45
2017-03-26T09:56:33.488Z,12.43
2017-03-26T09:57:33.105Z,9.33
2017-03-26T09:58:32.431Z,11.63
2017-03-26T09:59:31.629Z,10.28
2017-03-26T10:00:30.792Z,10.45
2017-03-26T10:01:30.025Z,11.43
2017-03-26T10:02:29.210Z,9.08
2017-03-26T10:03:28.780Z,9.88
2017-03-26T10:04:27.949Z,9.85
2017-03-26T10:05:27.130Z,11.28
2017-03-26T10:06:26.377Z,7.12
2017-03-26T10:07:25.603Z,7.72
2017-03-26T10:08:24.749Z,7.65
2017-03-26T10:09:24.230Z,8.93
2017-03-26T10:10:23.426Z,10.82
2017-03-26T10:11:22.798Z,7.22
2017-03-26T10:12:22.028Z,5.88
2017-03-26T10:13:25.758Z,10.18
2017-03-26T10:14:25.351Z,8.70
2017-03-26T10:15:24.533Z,11.27
2017-03-26T10:16:23.779Z,7.18
2017-03-26T10:17:22.930Z,9.30
2017-03-26T10:18:22.991Z,10.02
2017-03-26T10:19:23.166Z,8.12
2017-03-26T10:20:22.664Z,8.32
2017-03-26T10:21:21.871Z,9.60
2017-03-26T10:22:21.200Z,10.88
2017-03-26T10:23:20.477Z,8.68
2017-03-26T10:24:19.682Z,5.25
2017-03-26T10:25:18.819Z,7.93
2017-03-26T10:26:18.425Z,7.87
2017-03-26T10:27:17.658Z,7.13
2017-03-26T10:28:16.932Z,10.47
2017-03-26T10:29:16.174Z,6.12
2017-03-26T10:30:15.407Z,7.10
2017-03-26T10:31:14.599Z,6.85
2017-03-26T10:32:14.133Z,8.00
2017-03-26T10:33:13.544Z,13.07
2017-03-26T10:34:12.739Z,6.68
2017-03-26T10:35:11.890Z,8.80
2017-03-26T10:36:11.139Z,10.55
2017-03-26T10:37:10.395Z,7.25
2017-03-26T10:38:09.564Z,7.38
2017-03-26T10:39:09.464Z,6.92
2017-03-26T10:40:08.929Z,4.60
2017-03-26T10:41:08.119Z,8.72
2017-03-26T10:42:07.320Z,6.25
2017-03-26T10:43:07.412Z,9.38
2017-03-26T10:44:07.027Z,6.35
2017-03-26T10:45:06.553Z,7.55
2017-03-26T10:46:05.854Z,8.60
2017-03-26T10:47:05.847Z,6.12
2017-03-26T10:48:05.166Z,7.58
2017-03-26T10:49:04.513Z,6.78
2017-03-26T10:50:03.841Z,5.88
2017-03-26T10:51:03.183Z,8.57
2017-03-26T10:52:02.515Z,6.40
2017-03-26T10:53:02.059Z,6.77
2017-03-26T10:54:02.268Z,5.43
2017-03-26T10:55:01.839Z,5.88
2017-03-26T10:56:02.186Z,8.92
2017-03-26T10:57:02.309Z,5.43
2017-03-26T10:58:01.683Z,6.78
2017-03-26T10:59:01.049Z,4.55
2017-03-26T11:00:00.987Z,8.80
2017-03-26T11:01:00.491Z,6.80
2017-03-26T11:01:59.977Z,6.93
2017-03-26T11:02:59.376Z,5.07
2017-03-26T11:03:58.839Z,8.77
2017-03-26T11:04:59.773Z,10.60
2017-03-26T11:06:00.569Z,6.12
2017-03-26T11:07:00.160Z,9.40
2017-03-26T11:07:59.899Z,5.23
2017-03-26T11:08:59.245Z,7.95
2017-03-26T11:09:58.656Z,10.53
2017-03-26T11:10:58.726Z,7.38
2017-03-26T11:11:58.503Z,6.62
2017-03-26T11:12:59.470Z,6.92
2017-03-26T11:13:58.849Z,6.98
2017-03-26T11:14:58.235Z,6.97
2017-03-26T11:15:57.490Z,6.18
2017-03-26T11:16:56.693Z,6.13
2017-03-26T11:17:57.020Z,7.88
2017-03-26T11:18:56.198Z,8.70
2017-03-26T11:19:55.394Z,9.33
2017-03-26T11:20:54.641Z,8.45
2017-03-26T11:21:53.871Z,5.53
2017-03-26T11:22:53.027Z,7.55
2017-03-26T11:23:52.523Z,7.92
2017-03-26T11:24:51.810Z,8.93
2017-03-26T11:25:51.812Z,5.43
2017-03-26T11:26:51.188Z,7.57
2017-03-26T11:27:50.721Z,8.35
2017-03-26T11:28:50.090Z,6.70
2017-03-26T11:29:49.842Z,5.38
2017-03-26T11:30:49.287Z,7.33
2017-03-26T11:31:48.613Z,6.70
2017-03-26T11:32:47.923Z,6.72
2017-03-26T11:33:48.087Z,6.67
2017-03-26T11:34:49.279Z,4.95
2017-03-26T11:35:48.643Z,6.35
2017-03-26T11:36:47.999Z,7.53
2017-03-26T11:37:47.276Z,5.85
2017-03-26T11:38:46.621Z,5.72
2017-03-26T11:39:46.777Z,9.32
2017-03-26T11:40:46.325Z,7.78
2017-03-26T11:41:46.525Z,7.00
2017-03-26T11:42:48.843Z,5.70
2017-03-26T11:43:48.205Z,12.10
2017-03-26T11:44:47.609Z,8.45
2017-03-26T11:45:47.313Z,6.47
2017-03-26T11:46:46.616Z,8.55
2017-03-26T11:47:47.644Z,6.92
2017-03-26T11:48:47.124Z,6.75
2017-03-26T11:49:46.402Z,6.25
2017-03-26T11:50:45.625Z,16.58
2017-03-26T11:51:46.220Z,6.17
2017-03-26T11:52:46.364Z,8.77
2017-03-26T11:53:47.501Z,9.72
2017-03-26T11:54:47.783Z,8.33
2017-03-26T11:55:47.803Z,14.48
2017-03-26T11:56:47.464Z,9.02
2017-03-26T11:57:46.725Z,8.10
2017-03-26T11:58:46.124Z,13.62
2017-03-26T11:59:46.139Z,8.90
2017-03-26T12:00:45.444Z,10.32
2017-03-26T12:01:44.936Z,8.75
2017-03-26T12:02:44.510Z,12.85
2017-03-26T12:03:43.837Z,9.77
2017-03-26T12:04:43.089Z,12.60
2017-03-26T12:05:42.365Z,6.87
2017-03-26T12:06:42.486Z,7.57
2017-03-26T12:07:41.867Z,10.57
2017-03-26T12:08:41.622Z,10.95
2017-03-26T12:09:40.873Z,6.82
2017-03-26T12:10:40.076Z,6.27
2017-03-26T12:11:39.394Z,9.17
2017-03-26T12:12:38.672Z,8.75
2017-03-26T12:13:38.465Z,9.95
2017-03-26T12:14:38.973Z,8.25
2017-03-26T12:15:38.223Z,10.18
2017-03-26T12:16:37.436Z,10.02
2017-03-26T12:17:37.223Z,8.75
2017-03-26T12:18:36.481Z,6.27
2017-03-26T12:19:35.900Z,5.62
2017-03-26T12:20:35.610Z,9.43
2017-03-26T12:21:35.576Z,9.22
2017-03-26T12:22:34.761Z,10.37
2017-03-26T12:23:34.289Z,9.17
2017-03-26T12:24:33.482Z,7.10
2017-03-26T12:25:32.681Z,6.80
2017-03-26T12:26:32.433Z,8.53
2017-03-26T12:27:31.743Z,10.92
2017-03-26T12:28:31.181Z,9.20
2017-03-26T12:29:30.486Z,8.88
2017-03-26T12:30:29.931Z,6.78
2017-03-26T12:31:29.755Z,8.47
2017-03-26T12:32:29.878Z,6.35
2017-03-26T12:33:29.325Z,12.83
2017-03-26T12:34:29.671Z,9.72
2017-03-26T12:35:29.145Z,6.33
2017-03-26T12:36:28.869Z,7.40
2017-03-26T12:37:28.290Z,9.15
2017-03-26T12:38:27.947Z,10.15
2017-03-26T12:39:27.420Z,8.22
2017-03-26T12:40:27.515Z,9.70
2017-03-26T12:41:26.864Z,7.03
2017-03-26T12:42:26.393Z,9.73
2017-03-26T12:43:25.682Z,7.82
2017-03-26T12:44:25.635Z,6.88
2017-03-26T12:45:25.088Z,10.60
2017-03-26T12:46:24.451Z,7.75
2017-03-26T12:47:23.844Z,12.28
2017-03-26T12:48:23.076Z,8.10
2017-03-26T12:49:22.274Z,15.97